sensor_id;sensor_type;location;lat;lon;timestamp;P1;durP1;ratioP1;P2;durP2;ratioP2
39970;SDS011;35425;51.142;17.178;2022-08-19T00:01:38;3.00;;;2.80;;
39970;SDS011;35425;51.142;17.178;2022-08-19T00:04:07;3.50;;;3.30;;
39970;SDS011;35425;51.142;17.178;2022-08-19T00:06:35;3.20;;;3.00;;
39970;SDS011;35425;51.142;17.178;2022-08-19T00:09:02;3.15;;;2.95;;
39970;SDS011;35425;51.142;17.178;2022-08-19T00:11:29;3.50;;;3.30;;
39970;SDS011;35425;51.142;17.178;2022-08-19T00:13:56;3.17;;;2.97;;
39970;SDS011;35425;51.142;17.178;2022-08-19T00:16:23;2.90;;;2.70;;
39970;SDS011;35425;51.142;17.178;2022-08-19T00:18:52;3.20;;;3.00;;
39970;SDS011;35425;51.142;17.178;2022-08-19T00:21:19;3.58;;;3.28;;
39970;SDS011;35425;51.142;17.178;2022-08-19T00:23:46;2.90;;;2.70;;
39970;SDS011;35425;51.142;17.178;2022-08-19T00:26:12;3.17;;;2.97;;
39970;SDS011;35425;51.142;17.178;2022-08-19T00:28:39;3.08;;;2.88;;
39970;SDS011;35425;51.142;17.178;2022-08-19T00:31:06;3.05;;;2.85;;
39970;SDS011;35425;51.142;17.178;2022-08-19T00:33:33;2.97;;;2.78;;
39970;SDS011;35425;51.142;17.178;2022-08-19T00:36:04;3.33;;;3.10;;
39970;SDS011;35425;51.142;17.178;2022-08-19T00:38:33;3.38;;;3.15;;
39970;SDS011;35425;51.142;17.178;2022-08-19T00:41:04;3.28;;;3.08;;
39970;SDS011;35425;51.142;17.178;2022-08-19T00:43:31;3.25;;;3.05;;
39970;SDS011;35425;51.142;17.178;2022-08-19T00:45:58;3.45;;;3.15;;
39970;SDS011;35425;51.142;17.178;2022-08-19T00:48:24;3.45;;;3.25;;
39970;SDS011;35425;51.142;17.178;2022-08-19T00:50:52;3.17;;;2.97;;
39970;SDS011;35425;51.142;17.178;2022-08-19T00:53:20;3.58;;;3.28;;
39970;SDS011;35425;51.142;17.178;2022-08-19T00:55:48;3.20;;;3.00;;
39970;SDS011;35425;51.142;17.178;2022-08-19T00:58:18;3.17;;;2.90;;
39970;SDS011;35425;51.142;17.178;2022-08-19T01:00:45;3.33;;;3.13;;
39970;SDS011;35425;51.142;17.178;2022-08-19T01:03:14;3.28;;;3.08;;
39970;SDS011;35425;51.142;17.178;2022-08-19T01:05:44;3.15;;;2.95;;
39970;SDS011;35425;51.142;17.178;2022-08-19T01:08:11;2.80;;;2.60;;
39970;SDS011;35425;51.142;17.178;2022-08-19T01:10:50;2.97;;;2.78;;
39970;SDS011;35425;51.142;17.178;2022-08-19T01:13:19;3.10;;;2.70;;
39970;SDS011;35425;51.142;17.178;2022-08-19T01:15:47;2.78;;;2.58;;
39970;SDS011;35425;51.142;17.178;2022-08-19T01:18:15;3.17;;;2.97;;
39970;SDS011;35425;51.142;17.178;2022-08-19T01:20:42;3.20;;;2.90;;
39970;SDS011;35425;51.142;17.178;2022-08-19T01:23:10;3.25;;;3.05;;
39970;SDS011;35425;51.142;17.178;2022-08-19T01:28:07;3.05;;;2.85;;
39970;SDS011;35425;51.142;17.178;2022-08-19T01:30:36;3.00;;;2.75;;
39970;SDS011;35425;51.142;17.178;2022-08-19T01:33:02;3.28;;;3.08;;
39970;SDS011;35425;51.142;17.178;2022-08-19T01:35:31;3.42;;;2.80;;
39970;SDS011;35425;51.142;17.178;2022-08-19T01:38:09;2.63;;;2.50;;
39970;SDS011;35425;51.142;17.178;2022-08-19T01:40:38;3.17;;;2.97;;
39970;SDS011;35425;51.142;17.178;2022-08-19T01:43:05;3.53;;;3.25;;
39970;SDS011;35425;51.142;17.178;2022-08-19T01:45:32;3.00;;;2.80;;
39970;SDS011;35425;51.142;17.178;2022-08-19T01:47:59;3.17;;;2.95;;
39970;SDS011;35425;51.142;17.178;2022-08-19T01:50:28;3.22;;;3.03;;
39970;SDS011;35425;51.142;17.178;2022-08-19T01:52:54;2.80;;;2.60;;
39970;SDS011;35425;51.142;17.178;2022-08-19T01:55:33;2.80;;;2.60;;
39970;SDS011;35425;51.142;17.178;2022-08-19T01:58:00;3.00;;;2.80;;
39970;SDS011;35425;51.142;17.178;2022-08-19T02:00:29;2.70;;;2.50;;
39970;SDS011;35425;51.142;17.178;2022-08-19T02:02:56;2.85;;;2.65;;
39970;SDS011;35425;51.142;17.178;2022-08-19T02:05:22;2.95;;;2.75;;
39970;SDS011;35425;51.142;17.178;2022-08-19T02:07:49;3.22;;;2.65;;
39970;SDS011;35425;51.142;17.178;2022-08-19T02:10:18;2.70;;;2.50;;
39970;SDS011;35425;51.142;17.178;2022-08-19T02:12:45;2.60;;;2.40;;
39970;SDS011;35425;51.142;17.178;2022-08-19T02:15:13;2.63;;;2.42;;
39970;SDS011;35425;51.142;17.178;2022-08-19T02:17:40;2.90;;;2.70;;
39970;SDS011;35425;51.142;17.178;2022-08-19T02:20:06;2.75;;;2.55;;
39970;SDS011;35425;51.142;17.178;2022-08-19T02:22:34;2.60;;;2.42;;
39970;SDS011;35425;51.142;17.178;2022-08-19T02:25:01;2.97;;;2.78;;
39970;SDS011;35425;51.142;17.178;2022-08-19T02:27:28;2.67;;;2.50;;
39970;SDS011;35425;51.142;17.178;2022-08-19T02:29:54;2.80;;;2.60;;
39970;SDS011;35425;51.142;17.178;2022-08-19T02:32:21;2.63;;;2.42;;
39970;SDS011;35425;51.142;17.178;2022-08-19T02:34:47;2.50;;;2.40;;
39970;SDS011;35425;51.142;17.178;2022-08-19T02:37:14;2.97;;;2.70;;
39970;SDS011;35425;51.142;17.178;2022-08-19T02:40:00;2.78;;;2.58;;
39970;SDS011;35425;51.142;17.178;2022-08-19T02:42:28;3.08;;;2.88;;
39970;SDS011;35425;51.142;17.178;2022-08-19T02:44:55;2.58;;;2.47;;
39970;SDS011;35425;51.142;17.178;2022-08-19T02:47:22;2.80;;;2.60;;
39970;SDS011;35425;51.142;17.178;2022-08-19T02:49:48;2.75;;;2.55;;
39970;SDS011;35425;51.142;17.178;2022-08-19T02:52:16;2.28;;;2.17;;
39970;SDS011;35425;51.142;17.178;2022-08-19T02:54:42;2.60;;;2.40;;
39970;SDS011;35425;51.142;17.178;2022-08-19T02:57:09;2.60;;;2.40;;
39970;SDS011;35425;51.142;17.178;2022-08-19T02:59:36;2.55;;;2.38;;
39970;SDS011;35425;51.142;17.178;2022-08-19T03:02:02;2.45;;;2.28;;
39970;SDS011;35425;51.142;17.178;2022-08-19T03:04:29;2.70;;;2.50;;
39970;SDS011;35425;51.142;17.178;2022-08-19T03:06:55;2.70;;;2.50;;
39970;SDS011;35425;51.142;17.178;2022-08-19T03:09:36;2.47;;;2.38;;
39970;SDS011;35425;51.142;17.178;2022-08-19T03:12:03;2.50;;;2.40;;
39970;SDS011;35425;51.142;17.178;2022-08-19T03:14:30;2.47;;;2.28;;
39970;SDS011;35425;51.142;17.178;2022-08-19T03:16:57;2.35;;;2.25;;
39970;SDS011;35425;51.142;17.178;2022-08-19T03:19:23;2.47;;;2.28;;
39970;SDS011;35425;51.142;17.178;2022-08-19T03:21:50;2.40;;;2.30;;
39970;SDS011;35425;51.142;17.178;2022-08-19T03:24:18;2.45;;;2.25;;
39970;SDS011;35425;51.142;17.178;2022-08-19T03:26:46;2.33;;;2.17;;
39970;SDS011;35425;51.142;17.178;2022-08-19T03:29:14;2.30;;;2.20;;
39970;SDS011;35425;51.142;17.178;2022-08-19T03:31:54;2.70;;;2.50;;
39970;SDS011;35425;51.142;17.178;2022-08-19T03:34:25;2.40;;;2.30;;
39970;SDS011;35425;51.142;17.178;2022-08-19T03:39:20;2.08;;;1.98;;
39970;SDS011;35425;51.142;17.178;2022-08-19T03:41:48;2.20;;;2.10;;
39970;SDS011;35425;51.142;17.178;2022-08-19T03:44:36;2.47;;;2.33;;
39970;SDS011;35425;51.142;17.178;2022-08-19T03:47:04;2.53;;;2.33;;
39970;SDS011;35425;51.142;17.178;2022-08-19T03:49:31;2.40;;;2.30;;
39970;SDS011;35425;51.142;17.178;2022-08-19T03:51:59;2.20;;;2.10;;
39970;SDS011;35425;51.142;17.178;2022-08-19T03:56:57;2.15;;;2.00;;
39970;SDS011;35425;51.142;17.178;2022-08-19T03:59:25;2.45;;;2.35;;
39970;SDS011;35425;51.142;17.178;2022-08-19T04:01:53;1.98;;;1.88;;
39970;SDS011;35425;51.142;17.178;2022-08-19T04:04:20;2.40;;;2.20;;
39970;SDS011;35425;51.142;17.178;2022-08-19T04:06:47;2.38;;;2.25;;
39970;SDS011;35425;51.142;17.178;2022-08-19T04:09:14;2.03;;;1.92;;
39970;SDS011;35425;51.142;17.178;2022-08-19T04:11:49;1.92;;;1.83;;
39970;SDS011;35425;51.142;17.178;2022-08-19T04:14:20;2.50;;;2.30;;
39970;SDS011;35425;51.142;17.178;2022-08-19T04:16:47;1.90;;;1.80;;
39970;SDS011;35425;51.142;17.178;2022-08-19T04:19:15;2.00;;;1.90;;
39970;SDS011;35425;51.142;17.178;2022-08-19T04:21:43;2.05;;;1.95;;
39970;SDS011;35425;51.142;17.178;2022-08-19T04:24:10;2.05;;;1.95;;
39970;SDS011;35425;51.142;17.178;2022-08-19T04:26:37;2.17;;;2.08;;
39970;SDS011;35425;51.142;17.178;2022-08-19T04:29:11;1.92;;;1.83;;
39970;SDS011;35425;51.142;17.178;2022-08-19T04:31:38;2.05;;;1.95;;
39970;SDS011;35425;51.142;17.178;2022-08-19T04:34:06;1.98;;;1.88;;
39970;SDS011;35425;51.142;17.178;2022-08-19T04:36:34;1.70;;;1.60;;
39970;SDS011;35425;51.142;17.178;2022-08-19T04:39:05;2.00;;;1.90;;
39970;SDS011;35425;51.142;17.178;2022-08-19T04:41:32;2.00;;;1.90;;
39970;SDS011;35425;51.142;17.178;2022-08-19T04:44:17;1.80;;;1.70;;
39970;SDS011;35425;51.142;17.178;2022-08-19T04:46:45;2.10;;;2.00;;
39970;SDS011;35425;51.142;17.178;2022-08-19T04:49:17;1.90;;;1.80;;
39970;SDS011;35425;51.142;17.178;2022-08-19T04:51:45;1.70;;;1.60;;
39970;SDS011;35425;51.142;17.178;2022-08-19T04:54:13;1.77;;;1.67;;
39970;SDS011;35425;51.142;17.178;2022-08-19T04:56:56;1.85;;;1.75;;
39970;SDS011;35425;51.142;17.178;2022-08-19T04:59:22;1.70;;;1.60;;
39970;SDS011;35425;51.142;17.178;2022-08-19T05:01:49;1.95;;;1.85;;
39970;SDS011;35425;51.142;17.178;2022-08-19T05:04:19;1.85;;;1.75;;
39970;SDS011;35425;51.142;17.178;2022-08-19T05:06:47;2.50;;;2.30;;
39970;SDS011;35425;51.142;17.178;2022-08-19T05:09:14;2.35;;;2.25;;
39970;SDS011;35425;51.142;17.178;2022-08-19T05:11:42;2.08;;;1.98;;
39970;SDS011;35425;51.142;17.178;2022-08-19T05:14:09;2.20;;;2.10;;
39970;SDS011;35425;51.142;17.178;2022-08-19T05:16:35;2.00;;;1.80;;
39970;SDS011;35425;51.142;17.178;2022-08-19T05:19:02;1.95;;;1.85;;
39970;SDS011;35425;51.142;17.178;2022-08-19T05:21:47;2.05;;;1.95;;
39970;SDS011;35425;51.142;17.178;2022-08-19T05:24:32;2.42;;;2.22;;
39970;SDS011;35425;51.142;17.178;2022-08-19T05:27:00;2.13;;;2.03;;
39970;SDS011;35425;51.142;17.178;2022-08-19T05:29:28;2.40;;;2.20;;
39970;SDS011;35425;51.142;17.178;2022-08-19T05:32:03;2.30;;;2.20;;
39970;SDS011;35425;51.142;17.178;2022-08-19T05:34:31;2.47;;;2.28;;
39970;SDS011;35425;51.142;17.178;2022-08-19T05:36:59;2.25;;;2.10;;
39970;SDS011;35425;51.142;17.178;2022-08-19T05:39:28;2.50;;;2.30;;
39970;SDS011;35425;51.142;17.178;2022-08-19T05:41:56;2.13;;;2.03;;
39970;SDS011;35425;51.142;17.178;2022-08-19T05:44:23;2.50;;;2.40;;
39970;SDS011;35425;51.142;17.178;2022-08-19T05:46:50;2.10;;;2.00;;
39970;SDS011;35425;51.142;17.178;2022-08-19T05:49:21;2.65;;;2.42;;
39970;SDS011;35425;51.142;17.178;2022-08-19T05:51:48;2.72;;;2.53;;
39970;SDS011;35425;51.142;17.178;2022-08-19T05:54:14;2.50;;;2.30;;
39970;SDS011;35425;51.142;17.178;2022-08-19T05:56:41;2.85;;;2.65;;
39970;SDS011;35425;51.142;17.178;2022-08-19T05:59:09;2.53;;;2.42;;
39970;SDS011;35425;51.142;17.178;2022-08-19T06:01:37;2.70;;;2.50;;
39970;SDS011;35425;51.142;17.178;2022-08-19T06:04:05;2.60;;;2.50;;
39970;SDS011;35425;51.142;17.178;2022-08-19T06:06:33;2.92;;;2.72;;
39970;SDS011;35425;51.142;17.178;2022-08-19T06:09:04;3.20;;;3.00;;
39970;SDS011;35425;51.142;17.178;2022-08-19T06:12:04;2.90;;;2.70;;
39970;SDS011;35425;51.142;17.178;2022-08-19T06:14:27;3.25;;;2.97;;
39970;SDS011;35425;51.142;17.178;2022-08-19T06:16:53;3.20;;;2.95;;
39970;SDS011;35425;51.142;17.178;2022-08-19T06:19:21;3.28;;;3.08;;
39970;SDS011;35425;51.142;17.178;2022-08-19T06:21:48;3.50;;;3.20;;
39970;SDS011;35425;51.142;17.178;2022-08-19T06:24:17;3.60;;;3.30;;
39970;SDS011;35425;51.142;17.178;2022-08-19T06:26:45;3.17;;;2.97;;
39970;SDS011;35425;51.142;17.178;2022-08-19T06:29:17;3.47;;;3.28;;
39970;SDS011;35425;51.142;17.178;2022-08-19T06:31:51;3.35;;;3.10;;
39970;SDS011;35425;51.142;17.178;2022-08-19T06:34:18;3.63;;;3.35;;
39970;SDS011;35425;51.142;17.178;2022-08-19T06:36:46;3.72;;;3.42;;
39970;SDS011;35425;51.142;17.178;2022-08-19T06:39:15;3.33;;;3.13;;
39970;SDS011;35425;51.142;17.178;2022-08-19T06:41:43;3.75;;;3.45;;
39970;SDS011;35425;51.142;17.178;2022-08-19T06:44:20;4.10;;;3.80;;
39970;SDS011;35425;51.142;17.178;2022-08-19T06:46:50;3.83;;;3.53;;
39970;SDS011;35425;51.142;17.178;2022-08-19T06:49:20;4.28;;;3.88;;
39970;SDS011;35425;51.142;17.178;2022-08-19T06:51:47;3.42;;;3.13;;
39970;SDS011;35425;51.142;17.178;2022-08-19T06:54:15;3.42;;;3.13;;
39970;SDS011;35425;51.142;17.178;2022-08-19T06:56:45;3.60;;;3.30;;
39970;SDS011;35425;51.142;17.178;2022-08-19T06:59:13;4.38;;;4.07;;
39970;SDS011;35425;51.142;17.178;2022-08-19T07:01:41;4.07;;;3.78;;
39970;SDS011;35425;51.142;17.178;2022-08-19T07:04:08;4.20;;;3.85;;
39970;SDS011;35425;51.142;17.178;2022-08-19T07:06:37;4.40;;;4.10;;
39970;SDS011;35425;51.142;17.178;2022-08-19T07:09:09;3.85;;;3.55;;
39970;SDS011;35425;51.142;17.178;2022-08-19T07:11:37;4.07;;;3.78;;
39970;SDS011;35425;51.142;17.178;2022-08-19T07:14:03;4.00;;;3.67;;
39970;SDS011;35425;51.142;17.178;2022-08-19T07:16:44;4.30;;;3.90;;
39970;SDS011;35425;51.142;17.178;2022-08-19T07:19:12;4.75;;;4.35;;
39970;SDS011;35425;51.142;17.178;2022-08-19T07:21:43;4.20;;;3.90;;
39970;SDS011;35425;51.142;17.178;2022-08-19T07:24:10;3.80;;;3.50;;
39970;SDS011;35425;51.142;17.178;2022-08-19T07:26:38;3.33;;;3.10;;
39970;SDS011;35425;51.142;17.178;2022-08-19T07:29:07;5.13;;;4.72;;
39970;SDS011;35425;51.142;17.178;2022-08-19T07:31:34;4.50;;;4.20;;
39970;SDS011;35425;51.142;17.178;2022-08-19T07:34:03;4.72;;;4.35;;
39970;SDS011;35425;51.142;17.178;2022-08-19T07:36:34;5.15;;;4.75;;
39970;SDS011;35425;51.142;17.178;2022-08-19T07:39:03;4.70;;;4.30;;
39970;SDS011;35425;51.142;17.178;2022-08-19T07:41:30;4.90;;;4.50;;
39970;SDS011;35425;51.142;17.178;2022-08-19T07:43:58;4.40;;;4.10;;
39970;SDS011;35425;51.142;17.178;2022-08-19T07:46:25;4.60;;;4.22;;
39970;SDS011;35425;51.142;17.178;2022-08-19T07:48:56;4.50;;;4.20;;
39970;SDS011;35425;51.142;17.178;2022-08-19T07:51:23;5.22;;;4.82;;
39970;SDS011;35425;51.142;17.178;2022-08-19T07:54:02;4.72;;;4.28;;
39970;SDS011;35425;51.142;17.178;2022-08-19T07:56:28;4.50;;;4.20;;
39970;SDS011;35425;51.142;17.178;2022-08-19T07:58:55;5.03;;;4.57;;
39970;SDS011;35425;51.142;17.178;2022-08-19T08:03:54;4.40;;;4.10;;
39970;SDS011;35425;51.142;17.178;2022-08-19T08:06:39;4.38;;;4.03;;
39970;SDS011;35425;51.142;17.178;2022-08-19T08:09:27;4.28;;;3.95;;
39970;SDS011;35425;51.142;17.178;2022-08-19T08:11:55;3.95;;;3.65;;
39970;SDS011;35425;51.142;17.178;2022-08-19T08:14:29;4.30;;;4.00;;
39970;SDS011;35425;51.142;17.178;2022-08-19T08:17:00;4.10;;;3.80;;
39970;SDS011;35425;51.142;17.178;2022-08-19T08:19:27;4.22;;;3.92;;
39970;SDS011;35425;51.142;17.178;2022-08-19T08:21:56;4.03;;;3.72;;
39970;SDS011;35425;51.142;17.178;2022-08-19T08:24:23;4.28;;;3.95;;
39970;SDS011;35425;51.142;17.178;2022-08-19T08:26:54;4.22;;;3.92;;
39970;SDS011;35425;51.142;17.178;2022-08-19T08:29:23;3.70;;;3.40;;
39970;SDS011;35425;51.142;17.178;2022-08-19T08:31:51;4.55;;;4.25;;
39970;SDS011;35425;51.142;17.178;2022-08-19T08:34:25;3.28;;;3.05;;
39970;SDS011;35425;51.142;17.178;2022-08-19T08:36:51;4.22;;;3.92;;
39970;SDS011;35425;51.142;17.178;2022-08-19T08:39:19;3.50;;;3.30;;
39970;SDS011;35425;51.142;17.178;2022-08-19T08:42:01;3.95;;;3.65;;
39970;SDS011;35425;51.142;17.178;2022-08-19T08:45:15;4.00;;;3.70;;
39970;SDS011;35425;51.142;17.178;2022-08-19T08:47:37;3.88;;;3.58;;
39970;SDS011;35425;51.142;17.178;2022-08-19T08:50:37;3.53;;;3.22;;
39970;SDS011;35425;51.142;17.178;2022-08-19T08:53:06;3.58;;;3.30;;
39970;SDS011;35425;51.142;17.178;2022-08-19T08:55:34;3.10;;;2.90;;
39970;SDS011;35425;51.142;17.178;2022-08-19T09:00:39;3.15;;;2.95;;
39970;SDS011;35425;51.142;17.178;2022-08-19T09:03:16;3.05;;;2.85;;
39970;SDS011;35425;51.142;17.178;2022-08-19T09:06:03;3.58;;;3.28;;
39970;SDS011;35425;51.142;17.178;2022-08-19T09:11:05;2.92;;;2.72;;
39970;SDS011;35425;51.142;17.178;2022-08-19T09:16:10;3.28;;;3.05;;
39970;SDS011;35425;51.142;17.178;2022-08-19T09:18:45;3.28;;;3.08;;
39970;SDS011;35425;51.142;17.178;2022-08-19T09:21:14;3.20;;;3.00;;
39970;SDS011;35425;51.142;17.178;2022-08-19T09:23:42;3.30;;;3.10;;
39970;SDS011;35425;51.142;17.178;2022-08-19T09:26:11;3.33;;;3.13;;
39970;SDS011;35425;51.142;17.178;2022-08-19T09:28:42;3.10;;;2.90;;
39970;SDS011;35425;51.142;17.178;2022-08-19T09:31:14;3.00;;;2.80;;
39970;SDS011;35425;51.142;17.178;2022-08-19T09:33:41;3.10;;;2.90;;
39970;SDS011;35425;51.142;17.178;2022-08-19T09:36:10;3.20;;;3.00;;
39970;SDS011;35425;51.142;17.178;2022-08-19T09:38:46;2.92;;;2.72;;
39970;SDS011;35425;51.142;17.178;2022-08-19T09:41:15;3.15;;;2.95;;
39970;SDS011;35425;51.142;17.178;2022-08-19T09:43:47;3.30;;;3.10;;
39970;SDS011;35425;51.142;17.178;2022-08-19T09:46:13;3.03;;;2.83;;
39970;SDS011;35425;51.142;17.178;2022-08-19T09:48:43;3.30;;;3.10;;
39970;SDS011;35425;51.142;17.178;2022-08-19T09:51:12;3.05;;;2.85;;
39970;SDS011;35425;51.142;17.178;2022-08-19T09:53:42;3.00;;;2.80;;
39970;SDS011;35425;51.142;17.178;2022-08-19T09:56:09;2.95;;;2.75;;
39970;SDS011;35425;51.142;17.178;2022-08-19T09:58:36;2.72;;;2.53;;
39970;SDS011;35425;51.142;17.178;2022-08-19T10:01:04;2.47;;;2.28;;
39970;SDS011;35425;51.142;17.178;2022-08-19T10:03:31;3.10;;;2.90;;
39970;SDS011;35425;51.142;17.178;2022-08-19T10:05:59;2.63;;;2.53;;
39970;SDS011;35425;51.142;17.178;2022-08-19T10:08:28;2.88;;;2.67;;
39970;SDS011;35425;51.142;17.178;2022-08-19T10:10:55;2.97;;;2.78;;
39970;SDS011;35425;51.142;17.178;2022-08-19T10:13:26;3.00;;;2.80;;
39970;SDS011;35425;51.142;17.178;2022-08-19T10:15:53;3.35;;;3.15;;
39970;SDS011;35425;51.142;17.178;2022-08-19T10:18:21;3.47;;;3.17;;
39970;SDS011;35425;51.142;17.178;2022-08-19T10:20:48;2.83;;;2.63;;
39970;SDS011;35425;51.142;17.178;2022-08-19T10:23:17;2.67;;;2.50;;
39970;SDS011;35425;51.142;17.178;2022-08-19T10:25:44;2.97;;;2.78;;
39970;SDS011;35425;51.142;17.178;2022-08-19T10:28:13;2.95;;;2.75;;
39970;SDS011;35425;51.142;17.178;2022-08-19T10:30:40;2.80;;;2.60;;
39970;SDS011;35425;51.142;17.178;2022-08-19T10:33:07;2.75;;;2.55;;
39970;SDS011;35425;51.142;17.178;2022-08-19T10:35:36;2.78;;;2.58;;
39970;SDS011;35425;51.142;17.178;2022-08-19T10:38:22;2.80;;;2.60;;
39970;SDS011;35425;51.142;17.178;2022-08-19T10:40:57;2.78;;;2.67;;
39970;SDS011;35425;51.142;17.178;2022-08-19T10:43:23;2.58;;;2.45;;
39970;SDS011;35425;51.142;17.178;2022-08-19T10:45:54;2.90;;;2.70;;
39970;SDS011;35425;51.142;17.178;2022-08-19T10:48:25;2.70;;;2.50;;
39970;SDS011;35425;51.142;17.178;2022-08-19T10:50:52;2.90;;;2.70;;
39970;SDS011;35425;51.142;17.178;2022-08-19T10:53:48;2.97;;;2.78;;
39970;SDS011;35425;51.142;17.178;2022-08-19T10:56:14;2.70;;;2.50;;
39970;SDS011;35425;51.142;17.178;2022-08-19T10:58:59;3.03;;;2.83;;
39970;SDS011;35425;51.142;17.178;2022-08-19T11:01:26;3.05;;;2.85;;
39970;SDS011;35425;51.142;17.178;2022-08-19T11:03:53;2.70;;;2.50;;
39970;SDS011;35425;51.142;17.178;2022-08-19T11:06:19;3.03;;;2.83;;
39970;SDS011;35425;51.142;17.178;2022-08-19T11:08:47;2.70;;;2.50;;
39970;SDS011;35425;51.142;17.178;2022-08-19T11:11:13;2.58;;;2.45;;
39970;SDS011;35425;51.142;17.178;2022-08-19T11:13:40;2.53;;;2.33;;
39970;SDS011;35425;51.142;17.178;2022-08-19T11:16:08;2.65;;;2.45;;
39970;SDS011;35425;51.142;17.178;2022-08-19T11:18:36;2.72;;;2.53;;
39970;SDS011;35425;51.142;17.178;2022-08-19T11:21:07;2.50;;;2.30;;
39970;SDS011;35425;51.142;17.178;2022-08-19T11:23:33;3.30;;;2.60;;
39970;SDS011;35425;51.142;17.178;2022-08-19T11:26:00;2.53;;;2.35;;
39970;SDS011;35425;51.142;17.178;2022-08-19T11:28:27;2.38;;;2.28;;
39970;SDS011;35425;51.142;17.178;2022-08-19T11:30:54;2.50;;;2.30;;
39970;SDS011;35425;51.142;17.178;2022-08-19T11:33:21;2.03;;;1.92;;
39970;SDS011;35425;51.142;17.178;2022-08-19T11:35:47;2.53;;;2.33;;
39970;SDS011;35425;51.142;17.178;2022-08-19T11:38:15;2.25;;;2.15;;
39970;SDS011;35425;51.142;17.178;2022-08-19T11:40:42;2.30;;;2.20;;
39970;SDS011;35425;51.142;17.178;2022-08-19T11:43:08;2.20;;;2.00;;
39970;SDS011;35425;51.142;17.178;2022-08-19T11:45:36;2.33;;;2.20;;
39970;SDS011;35425;51.142;17.178;2022-08-19T11:48:02;2.30;;;2.20;;
39970;SDS011;35425;51.142;17.178;2022-08-19T11:50:29;2.20;;;2.10;;
39970;SDS011;35425;51.142;17.178;2022-08-19T11:52:56;2.10;;;2.00;;
39970;SDS011;35425;51.142;17.178;2022-08-19T11:55:23;2.65;;;2.45;;
39970;SDS011;35425;51.142;17.178;2022-08-19T11:57:49;2.38;;;2.20;;
39970;SDS011;35425;51.142;17.178;2022-08-19T12:00:16;2.05;;;1.95;;
39970;SDS011;35425;51.142;17.178;2022-08-19T12:02:42;2.13;;;2.03;;
39970;SDS011;35425;51.142;17.178;2022-08-19T12:05:09;2.60;;;2.40;;
39970;SDS011;35425;51.142;17.178;2022-08-19T12:07:38;2.28;;;2.17;;
39970;SDS011;35425;51.142;17.178;2022-08-19T12:10:07;2.35;;;2.25;;
39970;SDS011;35425;51.142;17.178;2022-08-19T12:12:35;2.28;;;2.13;;
39970;SDS011;35425;51.142;17.178;2022-08-19T12:15:06;2.08;;;1.98;;
39970;SDS011;35425;51.142;17.178;2022-08-19T12:17:33;2.63;;;2.42;;
39970;SDS011;35425;51.142;17.178;2022-08-19T12:19:59;2.40;;;2.20;;
39970;SDS011;35425;51.142;17.178;2022-08-19T12:22:26;2.20;;;2.10;;
39970;SDS011;35425;51.142;17.178;2022-08-19T12:24:54;2.13;;;2.00;;
39970;SDS011;35425;51.142;17.178;2022-08-19T12:27:21;2.42;;;2.13;;
39970;SDS011;35425;51.142;17.178;2022-08-19T12:30:07;2.30;;;2.20;;
39970;SDS011;35425;51.142;17.178;2022-08-19T12:32:35;1.88;;;1.77;;
39970;SDS011;35425;51.142;17.178;2022-08-19T12:35:01;2.17;;;2.08;;
39970;SDS011;35425;51.142;17.178;2022-08-19T12:37:27;1.98;;;1.88;;
39970;SDS011;35425;51.142;17.178;2022-08-19T12:39:54;2.10;;;1.90;;
39970;SDS011;35425;51.142;17.178;2022-08-19T12:42:21;2.10;;;2.00;;
39970;SDS011;35425;51.142;17.178;2022-08-19T12:44:48;2.00;;;1.90;;
39970;SDS011;35425;51.142;17.178;2022-08-19T12:47:15;1.67;;;1.58;;
39970;SDS011;35425;51.142;17.178;2022-08-19T12:49:44;1.90;;;1.80;;
39970;SDS011;35425;51.142;17.178;2022-08-19T12:52:21;1.80;;;1.70;;
39970;SDS011;35425;51.142;17.178;2022-08-19T12:54:48;1.90;;;1.80;;
39970;SDS011;35425;51.142;17.178;2022-08-19T12:57:20;6.82;;;2.10;;
39970;SDS011;35425;51.142;17.178;2022-08-19T12:59:51;1.85;;;1.75;;
39970;SDS011;35425;51.142;17.178;2022-08-19T13:02:19;1.90;;;1.80;;
39970;SDS011;35425;51.142;17.178;2022-08-19T13:04:45;1.85;;;1.75;;
39970;SDS011;35425;51.142;17.178;2022-08-19T13:07:12;1.70;;;1.60;;
39970;SDS011;35425;51.142;17.178;2022-08-19T13:09:39;1.50;;;1.40;;
39970;SDS011;35425;51.142;17.178;2022-08-19T13:12:08;1.70;;;1.60;;
39970;SDS011;35425;51.142;17.178;2022-08-19T13:14:39;1.53;;;1.37;;
39970;SDS011;35425;51.142;17.178;2022-08-19T13:17:06;1.77;;;1.52;;
39970;SDS011;35425;51.142;17.178;2022-08-19T13:19:35;1.50;;;1.40;;
39970;SDS011;35425;51.142;17.178;2022-08-19T13:22:02;1.67;;;1.48;;
39970;SDS011;35425;51.142;17.178;2022-08-19T13:24:29;1.55;;;1.45;;
39970;SDS011;35425;51.142;17.178;2022-08-19T13:26:59;1.50;;;1.40;;
39970;SDS011;35425;51.142;17.178;2022-08-19T13:29:26;2.33;;;1.67;;
39970;SDS011;35425;51.142;17.178;2022-08-19T13:32:11;1.85;;;1.50;;
39970;SDS011;35425;51.142;17.178;2022-08-19T13:34:56;1.50;;;1.40;;
39970;SDS011;35425;51.142;17.178;2022-08-19T13:37:23;1.33;;;1.23;;
39970;SDS011;35425;51.142;17.178;2022-08-19T13:40:11;1.60;;;1.50;;
39970;SDS011;35425;51.142;17.178;2022-08-19T13:42:39;1.52;;;1.42;;
39970;SDS011;35425;51.142;17.178;2022-08-19T13:45:06;1.40;;;1.30;;
39970;SDS011;35425;51.142;17.178;2022-08-19T13:47:33;1.65;;;1.55;;
39970;SDS011;35425;51.142;17.178;2022-08-19T13:50:09;1.45;;;1.30;;
39970;SDS011;35425;51.142;17.178;2022-08-19T13:52:36;1.40;;;1.30;;
39970;SDS011;35425;51.142;17.178;2022-08-19T13:55:02;1.63;;;1.52;;
39970;SDS011;35425;51.142;17.178;2022-08-19T13:57:30;1.50;;;1.40;;
39970;SDS011;35425;51.142;17.178;2022-08-19T13:59:57;1.30;;;1.20;;
39970;SDS011;35425;51.142;17.178;2022-08-19T14:02:24;1.40;;;1.30;;
39970;SDS011;35425;51.142;17.178;2022-08-19T14:04:52;1.73;;;1.13;;
39970;SDS011;35425;51.142;17.178;2022-08-19T14:07:19;1.40;;;1.30;;
39970;SDS011;35425;51.142;17.178;2022-08-19T14:09:46;1.20;;;1.10;;
39970;SDS011;35425;51.142;17.178;2022-08-19T14:12:14;1.30;;;1.20;;
39970;SDS011;35425;51.142;17.178;2022-08-19T14:14:53;1.30;;;1.20;;
39970;SDS011;35425;51.142;17.178;2022-08-19T14:17:20;1.33;;;1.23;;
39970;SDS011;35425;51.142;17.178;2022-08-19T14:19:47;1.30;;;1.20;;
39970;SDS011;35425;51.142;17.178;2022-08-19T14:22:14;1.02;;;1.02;;
39970;SDS011;35425;51.142;17.178;2022-08-19T14:24:47;1.45;;;1.35;;
39970;SDS011;35425;51.142;17.178;2022-08-19T14:27:18;1.52;;;1.30;;
39970;SDS011;35425;51.142;17.178;2022-08-19T14:29:44;1.42;;;1.33;;
39970;SDS011;35425;51.142;17.178;2022-08-19T14:32:11;1.30;;;1.20;;
39970;SDS011;35425;51.142;17.178;2022-08-19T14:34:42;1.33;;;1.23;;
39970;SDS011;35425;51.142;17.178;2022-08-19T14:37:08;1.27;;;1.13;;
39970;SDS011;35425;51.142;17.178;2022-08-19T14:39:42;1.00;;;0.90;;
39970;SDS011;35425;51.142;17.178;2022-08-19T14:42:09;1.58;;;1.20;;
39970;SDS011;35425;51.142;17.178;2022-08-19T14:44:36;1.10;;;1.00;;
39970;SDS011;35425;51.142;17.178;2022-08-19T14:47:03;1.05;;;1.00;;
39970;SDS011;35425;51.142;17.178;2022-08-19T14:49:30;1.25;;;1.00;;
39970;SDS011;35425;51.142;17.178;2022-08-19T14:52:06;1.10;;;0.90;;
39970;SDS011;35425;51.142;17.178;2022-08-19T14:54:33;1.30;;;1.10;;
39970;SDS011;35425;51.142;17.178;2022-08-19T14:56:59;0.90;;;0.90;;
39970;SDS011;35425;51.142;17.178;2022-08-19T14:59:26;1.00;;;1.00;;
39970;SDS011;35425;51.142;17.178;2022-08-19T15:01:52;1.00;;;0.90;;
39970;SDS011;35425;51.142;17.178;2022-08-19T15:04:19;1.13;;;1.02;;